Time;durP1;ratioP1;P1;durP2;ratioP2;P2;SDS_P1;SDS_P2;PMS_P1;PMS_P2;Temp;Humidity;BMP_temperature;BMP_pressure;BME280_temperature;BME280_humidity;BME280_pressure;Samples;Min_cycle;Max_cycle;Signal;HPM_P1;HPM_P2
2023/07/10 00:01:27;;;;;;;5.35;4.45;;;24.80;53.50;;;;;;5045986;28;20997;-74
2023/07/10 00:03:53;;;;;;;4.60;4.20;;;24.80;52.70;;;;;;5046802;28;20306;-74
2023/07/10 00:06:19;;;;;;;5.88;4.60;;;24.80;53.90;;;;;;5039307;28;20230;-68
2023/07/10 00:08:44;;;;;;;3.88;3.53;;;24.80;55.60;;;;;;5042959;28;20208;-68
2023/07/10 00:11:15;;;;;;;6.57;3.83;;;24.70;53.40;;;;;;5033308;28;20221;-61
2023/07/10 00:13:41;;;;;;;5.28;4.25;;;24.70;53.20;;;;;;5033387;28;20672;-61
2023/07/10 00:16:17;;;;;;;5.00;3.85;;;24.80;54.50;;;;;;5035765;28;20216;-61
2023/07/10 00:18:43;;;;;;;5.20;4.05;;;24.70;55.20;;;;;;5042102;28;20196;-60
2023/07/10 00:21:08;;;;;;;4.78;4.28;;;24.70;54.70;;;;;;5037885;28;20198;-60
2023/07/10 00:23:34;;;;;;;5.60;5.03;;;24.70;54.50;;;;;;5041846;28;20197;-60
2023/07/10 00:25:59;;;;;;;5.93;4.70;;;24.70;55.90;;;;;;5040026;28;20205;-60
2023/07/10 00:28:25;;;;;;;5.32;4.82;;;24.70;54.40;;;;;;5037082;28;20215;-61
2023/07/10 00:30:51;;;;;;;4.70;4.30;;;24.70;54.50;;;;;;5044044;28;20210;-60
2023/07/10 00:33:19;;;;;;;29.17;13.65;;;24.70;55.90;;;;;;5044775;28;20208;-61
2023/07/10 00:35:45;;;;;;;18.90;10.60;;;24.60;56.00;;;;;;5046264;28;20207;-60
2023/07/10 00:38:17;;;;;;;11.82;7.13;;;24.50;56.60;;;;;;5038692;28;20203;-60
2023/07/10 00:40:46;;;;;;;6.93;5.70;;;24.40;57.10;;;;;;5041607;28;20283;-60
2023/07/10 00:43:36;;;;;;;5.60;4.60;;;24.40;57.40;;;;;;5036314;28;20196;-61
2023/07/10 00:46:11;;;;;;;19.00;8.68;;;24.00;57.40;;;;;;5027805;28;20287;-60
2023/07/10 00:48:45;;;;;;;8.38;5.97;;;23.80;59.50;;;;;;5026396;28;20205;-60
2023/07/10 00:51:28;;;;;;;6.80;4.40;;;23.60;59.80;;;;;;5037201;28;20266;-60
2023/07/10 00:53:55;;;;;;;6.13;4.43;;;23.40;59.90;;;;;;5040544;28;20197;-60
2023/07/10 00:56:22;;;;;;;4.57;4.18;;;23.30;59.80;;;;;;5040259;28;20235;-60
2023/07/10 00:58:49;;;;;;;5.85;4.72;;;23.30;59.70;;;;;;5045801;28;20550;-60
2023/07/10 01:01:21;;;;;;;4.95;4.45;;;23.30;59.70;;;;;;5037295;28;20751;-60
2023/07/10 01:03:49;;;;;;;6.65;4.28;;;23.30;60.80;;;;;;5043805;28;20693;-60
2023/07/10 01:06:18;;;;;;;5.40;4.90;;;23.30;61.10;;;;;;5043532;28;20226;-61
2023/07/10 01:08:48;;;;;;;5.43;4.30;;;23.30;60.60;;;;;;5042055;28;20203;-61
2023/07/10 01:11:15;;;;;;;4.72;4.22;;;23.30;60.20;;;;;;5045411;28;20774;-61
2023/07/10 01:13:44;;;;;;;5.45;4.53;;;23.30;60.00;;;;;;5041713;28;20205;-61
2023/07/10 01:16:10;;;;;;;5.22;4.82;;;23.30;60.70;;;;;;5036892;28;20202;-60
2023/07/10 01:18:38;;;;;;;6.82;5.00;;;23.30;61.20;;;;;;5040331;28;20195;-61
2023/07/10 01:21:23;;;;;;;5.32;4.82;;;23.40;61.90;;;;;;5037292;28;20206;-60
2023/07/10 01:23:49;;;;;;;7.50;5.45;;;23.40;61.10;;;;;;5043087;28;20202;-61
2023/07/10 01:26:15;;;;;;;5.65;5.15;;;23.40;61.00;;;;;;5037378;28;20689;-61
2023/07/10 01:28:41;;;;;;;4.97;4.57;;;23.50;59.40;;;;;;5037917;28;20201;-61
2023/07/10 01:31:10;;;;;;;6.88;4.70;;;23.50;60.30;;;;;;5044120;28;20697;-61
2023/07/10 01:33:41;;;;;;;4.95;4.55;;;23.50;60.90;;;;;;5038495;28;20307;-61
2023/07/10 01:36:09;;;;;;;5.30;4.80;;;23.60;61.00;;;;;;5039529;28;20218;-61
2023/07/10 01:38:44;;;;;;;5.13;4.55;;;23.60;60.40;;;;;;5038249;28;20240;-61
2023/07/10 01:41:22;;;;;;;6.47;5.05;;;23.60;61.80;;;;;;5043777;28;20205;-60
2023/07/10 01:43:47;;;;;;;4.47;4.05;;;23.60;61.30;;;;;;5036149;28;20200;-61
2023/07/10 01:46:21;;;;;;;5.65;5.15;;;23.60;61.90;;;;;;5031249;28;20382;-61
2023/07/10 01:48:49;;;;;;;5.40;4.90;;;23.70;62.50;;;;;;5041890;28;20235;-61
2023/07/10 01:51:14;;;;;;;6.13;5.15;;;23.80;63.10;;;;;;5030753;28;20242;-61
2023/07/10 01:53:43;;;;;;;4.72;4.32;;;23.80;64.40;;;;;;5031358;28;20854;-60
2023/07/10 01:56:08;;;;;;;4.97;4.57;;;23.80;65.90;;;;;;5040403;28;20747;-60
2023/07/10 01:58:34;;;;;;;6.32;5.72;;;23.80;67.40;;;;;;5042788;28;20192;-60
2023/07/10 02:01:00;;;;;;;5.07;4.57;;;23.70;67.20;;;;;;5039946;28;20637;-60
2023/07/10 02:03:26;;;;;;;6.68;5.18;;;23.70;65.90;;;;;;5034927;28;20202;-60
2023/07/10 02:05:51;;;;;;;6.07;4.50;;;23.70;66.30;;;;;;5036153;28;20229;-60
2023/07/10 02:08:17;;;;;;;5.15;4.72;;;23.80;66.00;;;;;;5039668;28;20568;-60
2023/07/10 02:10:42;;;;;;;4.65;4.22;;;23.80;65.90;;;;;;5046076;28;20631;-60
2023/07/10 02:13:08;;;;;;;5.78;5.28;;;23.80;66.60;;;;;;5041454;28;20285;-60
2023/07/10 02:15:33;;;;;;;7.40;5.03;;;23.70;66.50;;;;;;5034118;28;20248;-60
2023/07/10 02:17:59;;;;;;;6.82;4.20;;;23.70;65.00;;;;;;5042783;28;20571;-60
2023/07/10 02:20:24;;;;;;;5.45;4.70;;;23.70;64.90;;;;;;5033235;28;20252;-60
2023/07/10 02:22:50;;;;;;;7.97;4.88;;;23.70;65.40;;;;;;5043031;28;20207;-60
2023/07/10 02:25:16;;;;;;;4.70;4.13;;;23.60;66.00;;;;;;5042003;28;20225;-60
2023/07/10 02:27:41;;;;;;;4.95;4.45;;;23.60;67.00;;;;;;5037819;28;20594;-60
2023/07/10 02:30:08;;;;;;;5.47;4.57;;;23.40;66.60;;;;;;5030792;28;20216;-59
2023/07/10 02:32:34;;;;;;;4.68;4.28;;;23.30;66.40;;;;;;5035843;28;20237;-68
2023/07/10 02:34:59;;;;;;;4.95;4.22;;;23.40;66.80;;;;;;5039739;28;20204;-68
2023/07/10 02:37:24;;;;;;;6.70;4.82;;;23.40;65.40;;;;;;5035355;28;20232;-71
2023/07/10 02:39:50;;;;;;;7.63;5.07;;;23.30;64.60;;;;;;5040376;28;20418;-74
2023/07/10 02:42:16;;;;;;;5.25;4.20;;;23.40;65.10;;;;;;5041315;28;20223;-72
2023/07/10 02:44:41;;;;;;;8.07;4.72;;;23.30;64.30;;;;;;5038125;28;20198;-74
2023/07/10 02:47:07;;;;;;;4.90;4.50;;;23.30;64.30;;;;;;5043837;28;20202;-75
2023/07/10 02:49:32;;;;;;;6.85;5.05;;;23.30;64.80;;;;;;5037136;28;20240;-74
2023/07/10 02:51:57;;;;;;;5.72;5.07;;;23.30;64.70;;;;;;5050290;28;20210;-74
2023/07/10 02:54:23;;;;;;;6.25;4.97;;;23.30;64.60;;;;;;5037912;28;20634;-73
2023/07/10 02:56:49;;;;;;;6.18;5.13;;;23.30;66.60;;;;;;5042617;28;20193;-71
2023/07/10 02:59:14;;;;;;;4.93;4.43;;;23.20;65.80;;;;;;5036638;28;20250;-71
2023/07/10 03:01:40;;;;;;;5.03;4.60;;;23.20;65.90;;;;;;5040115;28;20226;-71
2023/07/10 03:04:05;;;;;;;5.43;4.88;;;23.20;66.00;;;;;;5045112;28;20696;-71
2023/07/10 03:06:31;;;;;;;4.65;4.25;;;23.20;67.10;;;;;;5043863;28;20214;-71
2023/07/10 03:08:58;;;;;;;7.72;4.15;;;23.20;67.20;;;;;;5040435;28;20314;-72
2023/07/10 03:11:24;;;;;;;5.00;4.38;;;23.20;66.50;;;;;;5040269;28;20206;-71
2023/07/10 03:13:49;;;;;;;7.25;5.53;;;23.10;66.40;;;;;;5041108;28;20199;-72
2023/07/10 03:16:16;;;;;;;4.38;3.92;;;23.20;65.40;;;;;;5029839;28;20192;-71
2023/07/10 03:18:41;;;;;;;6.43;4.47;;;23.10;66.30;;;;;;5034671;28;20269;-71
2023/07/10 03:21:08;;;;;;;4.68;4.22;;;23.10;66.60;;;;;;5032553;28;20760;-71
2023/07/10 03:23:34;;;;;;;4.40;3.97;;;23.10;66.50;;;;;;5031638;28;20226;-71
2023/07/10 03:26:00;;;;;;;5.43;4.88;;;23.10;67.80;;;;;;5037581;28;20206;-71
2023/07/10 03:28:26;;;;;;;4.53;4.13;;;23.10;67.00;;;;;;5041550;28;20589;-71
2023/07/10 03:30:52;;;;;;;4.60;4.10;;;23.00;66.80;;;;;;5042474;28;20220;-70
2023/07/10 03:33:19;;;;;;;4.78;4.38;;;23.10;67.00;;;;;;5040340;28;20196;-71
2023/07/10 03:35:48;;;;;;;5.22;4.60;;;23.10;66.10;;;;;;5035287;28;20300;-73
2023/07/10 03:38:15;;;;;;;4.57;4.18;;;23.00;68.10;;;;;;5026289;28;20200;-72
2023/07/10 03:40:51;;;;;;;4.88;4.15;;;23.00;67.80;;;;;;5035678;28;20206;-71
2023/07/10 03:43:17;;;;;;;6.47;4.20;;;22.90;67.70;;;;;;5040766;28;20207;-71
2023/07/10 03:45:42;;;;;;;5.00;4.60;;;22.90;67.80;;;;;;5041839;28;20205;-72
2023/07/10 03:48:08;;;;;;;5.10;4.70;;;23.00;67.30;;;;;;5037634;28;20347;-72
2023/07/10 03:50:34;;;;;;;7.15;6.47;;;23.00;66.40;;;;;;5032099;28;20225;-71
2023/07/10 03:53:00;;;;;;;5.22;4.72;;;23.00;66.80;;;;;;5044924;28;20230;-71
2023/07/10 03:55:25;;;;;;;5.10;4.60;;;23.00;66.80;;;;;;5048743;28;20208;-72
2023/07/10 03:57:50;;;;;;;6.10;5.47;;;23.00;69.60;;;;;;5038352;28;20310;-71
2023/07/10 04:00:16;;;;;;;5.38;4.88;;;23.10;68.60;;;;;;5048298;28;20795;-72
2023/07/10 04:02:41;;;;;;;4.63;4.18;;;23.10;69.30;;;;;;5036359;28;20254;-72
2023/07/10 04:05:07;;;;;;;4.68;4.18;;;23.00;69.00;;;;;;5038563;28;20293;-72
2023/07/10 04:07:32;;;;;;;4.72;4.25;;;23.00;68.80;;;;;;5044183;28;20209;-71
2023/07/10 04:09:58;;;;;;;5.97;4.70;;;23.00;68.10;;;;;;5034205;28;20218;-71
2023/07/10 04:12:23;;;;;;;4.90;4.40;;;23.10;67.80;;;;;;5037388;28;20200;-72
2023/07/10 04:14:49;;;;;;;4.30;3.90;;;23.20;66.60;;;;;;5046353;28;20192;-71
2023/07/10 04:17:15;;;;;;;4.68;4.20;;;23.10;66.50;;;;;;5044885;28;20194;-71
2023/07/10 04:19:41;;;;;;;4.47;4.07;;;23.20;66.80;;;;;;5027984;28;20204;-71
2023/07/10 04:22:06;;;;;;;4.13;3.78;;;23.30;66.70;;;;;;5034696;28;20630;-66
2023/07/10 04:24:32;;;;;;;5.05;4.43;;;23.30;65.50;;;;;;5042174;28;20202;-69
2023/07/10 04:26:57;;;;;;;4.55;4.07;;;23.30;66.30;;;;;;5044057;28;20205;-73
2023/07/10 04:29:24;;;;;;;13.55;4.43;;;23.30;67.50;;;;;;5043582;28;20236;-74
2023/07/10 04:31:50;;;;;;;5.25;4.13;;;23.30;67.90;;;;;;5014711;28;20197;-74
2023/07/10 04:34:15;;;;;;;5.00;4.10;;;23.20;70.20;;;;;;5036973;28;20688;-74
2023/07/10 04:36:42;;;;;;;5.82;4.40;;;23.20;69.30;;;;;;5041019;28;20215;-74
2023/07/10 04:39:08;;;;;;;3.92;3.58;;;23.20;70.60;;;;;;5034573;28;20261;-74
2023/07/10 04:41:34;;;;;;;5.88;5.28;;;23.30;69.60;;;;;;5034770;28;20212;-73
2023/07/10 04:44:00;;;;;;;6.90;4.25;;;23.30;69.50;;;;;;5037280;28;20571;-72
2023/07/10 04:46:27;;;;;;;7.30;4.55;;;23.30;71.00;;;;;;5039895;28;20206;-73
2023/07/10 04:48:52;;;;;;;5.28;4.00;;;23.40;70.70;;;;;;5039672;28;20278;-73
2023/07/10 04:51:19;;;;;;;5.65;4.32;;;23.40;70.70;;;;;;5038633;28;20310;-73
2023/07/10 04:53:45;;;;;;;6.50;4.70;;;23.40;71.20;;;;;;5034021;28;20196;-73
2023/07/10 04:56:14;;;;;;;5.28;4.30;;;23.40;70.40;;;;;;5033911;28;20205;-73
2023/07/10 04:58:54;;;;;;;4.85;4.43;;;23.50;70.70;;;;;;5044262;28;20206;-73
2023/07/10 05:01:24;;;;;;;4.63;4.22;;;23.60;67.60;;;;;;5034172;28;20213;-75
2023/07/10 05:03:50;;;;;;;4.78;4.38;;;23.70;65.70;;;;;;5029911;28;20231;-75
2023/07/10 05:06:16;;;;;;;4.95;3.72;;;23.80;67.10;;;;;;5038054;28;20224;-76
2023/07/10 05:08:46;;;;;;;4.28;3.85;;;23.80;66.80;;;;;;5041875;28;20192;-75
2023/07/10 05:11:13;;;;;;;6.10;4.00;;;23.80;66.00;;;;;;5021022;28;20672;-76
2023/07/10 05:13:38;;;;;;;6.88;4.53;;;23.80;67.50;;;;;;5030314;28;20270;-76
2023/07/10 05:16:04;;;;;;;5.50;4.70;;;23.80;65.60;;;;;;5030925;28;20222;-76
2023/07/10 05:18:30;;;;;;;4.72;4.32;;;23.80;67.30;;;;;;5045298;28;20215;-74
2023/07/10 05:20:56;;;;;;;4.38;3.90;;;23.70;68.40;;;;;;5039489;28;20597;-74
2023/07/10 05:23:22;;;;;;;5.20;4.60;;;23.80;70.00;;;;;;5043161;28;20199;-72
2023/07/10 05:26:04;;;;;;;6.30;4.78;;;23.60;73.00;;;;;;5025843;28;20199;-72
2023/07/10 05:28:30;;;;;;;5.80;4.97;;;23.10;73.10;;;;;;5043961;28;20206;-71
2023/07/10 05:31:00;;;;;;;12.95;5.07;;;23.10;71.40;;;;;;5043818;28;20248;-71
2023/07/10 05:33:30;;;;;;;5.30;4.75;;;23.10;71.00;;;;;;5035252;28;20213;-72
2023/07/10 05:36:00;;;;;;;5.88;4.55;;;23.10;73.60;;;;;;5044669;28;20206;-72
2023/07/10 05:38:29;;;;;;;5.75;5.15;;;22.70;78.90;;;;;;5030226;28;20341;-72
2023/07/10 05:40:54;;;;;;;6.72;5.53;;;22.80;77.60;;;;;;5028086;28;20732;-72
2023/07/10 05:43:21;;;;;;;6.53;5.15;;;22.50;82.80;;;;;;5040683;28;20533;-72
2023/07/10 05:45:48;;;;;;;6.30;4.38;;;22.50;82.20;;;;;;5039893;28;20285;-72
2023/07/10 05:48:19;;;;;;;5.55;5.05;;;22.60;82.10;;;;;;5028121;28;20195;-73
2023/07/10 05:50:48;;;;;;;4.70;4.28;;;22.60;86.30;;;;;;5036025;28;20659;-73
2023/07/10 05:53:16;;;;;;;6.53;5.93;;;22.60;86.90;;;;;;5032311;28;20275;-73
2023/07/10 05:55:51;;;;;;;9.15;4.88;;;22.70;91.50;;;;;;5043322;28;20734;-72
2023/07/10 05:58:18;;;;;;;6.70;5.88;;;22.70;91.00;;;;;;5043744;28;20273;-72
2023/07/10 06:00:45;;;;;;;7.60;6.53;;;22.80;97.90;;;;;;5032555;28;20225;-72
2023/07/10 06:03:11;;;;;;;6.80;5.65;;;22.70;99.90;;;;;;5036794;28;20774;-72
2023/07/10 06:05:37;;;;;;;6.22;5.32;;;22.80;98.60;;;;;;5040358;28;20306;-73
2023/07/10 06:08:02;;;;;;;9.55;6.95;;;22.70;99.90;;;;;;5018902;28;20218;-72
2023/07/10 06:10:28;;;;;;;6.15;5.55;;;22.60;99.90;;;;;;5024995;28;20211;-73
2023/07/10 06:12:53;;;;;;;9.93;6.15;;;22.50;99.90;;;;;;5027807;28;20277;-73
2023/07/10 06:15:19;;;;;;;11.00;7.13;;;22.40;99.90;;;;;;5028007;28;20347;-72
2023/07/10 06:17:44;;;;;;;10.55;7.25;;;22.40;99.90;;;;;;5038958;28;20201;-73
2023/07/10 06:20:10;;;;;;;10.30;6.37;;;22.40;99.90;;;;;;5026843;28;20226;-72
2023/07/10 06:22:36;;;;;;;8.50;6.33;;;22.30;99.90;;;;;;5025869;28;20841;-72
2023/07/10 06:25:01;;;;;;;8.20;6.33;;;22.20;99.90;;;;;;5028179;28;20209;-69
2023/07/10 06:27:27;;;;;;;7.68;6.30;;;22.20;99.90;;;;;;5026479;28;20208;-68
2023/07/10 06:29:52;;;;;;;6.80;6.10;;;22.20;99.90;;;;;;5034272;28;20298;-68
2023/07/10 06:32:19;;;;;;;9.23;6.50;;;22.20;99.90;;;;;;5031704;28;20310;-68
2023/07/10 06:34:44;;;;;;;7.05;6.10;;;22.20;99.90;;;;;;5032509;28;20203;-72
2023/07/10 06:37:10;;;;;;;6.70;6.00;;;22.30;99.90;;;;;;5021980;28;20214;-71
2023/07/10 06:39:35;;;;;;;7.93;7.13;;;22.30;99.90;;;;;;5010434;28;20191;-70
2023/07/10 06:42:01;;;;;;;8.23;6.15;;;22.20;99.90;;;;;;5027421;28;20442;-70
2023/07/10 06:44:26;;;;;;;8.60;6.38;;;22.20;99.90;;;;;;5028431;28;20537;-74
2023/07/10 06:46:52;;;;;;;7.17;6.43;;;22.30;99.90;;;;;;5028236;28;20195;-72
2023/07/10 06:49:17;;;;;;;7.30;6.38;;;22.40;99.90;;;;;;5027642;28;20195;-68
2023/07/10 06:51:43;;;;;;;13.50;8.13;;;22.50;99.90;;;;;;5032945;28;20305;-71
2023/07/10 06:54:09;;;;;;;9.65;7.47;;;22.50;99.90;;;;;;5027683;28;20646;-69
2023/07/10 06:56:35;;;;;;;8.32;7.25;;;22.60;99.90;;;;;;5030208;28;20198;-78
2023/07/10 06:59:01;;;;;;;8.93;6.57;;;22.60;99.90;;;;;;5040181;28;20199;-75
2023/07/10 07:01:29;;;;;;;6.72;6.13;;;22.60;99.90;;;;;;5048280;28;21036;-75
2023/07/10 07:03:55;;;;;;;8.45;5.90;;;22.70;99.90;;;;;;5038850;28;20210;-69
2023/07/10 07:06:20;;;;;;;12.07;7.77;;;22.70;99.90;;;;;;5036575;28;20215;-67
2023/07/10 07:08:47;;;;;;;9.48;6.47;;;22.80;99.90;;;;;;5046870;28;20593;-68
2023/07/10 07:11:12;;;;;;;7.43;6.55;;;22.90;99.90;;;;;;5045910;28;20210;-67
2023/07/10 07:13:38;;;;;;;11.20;6.53;;;22.90;99.90;;;;;;5024191;28;20202;-69
2023/07/10 07:16:04;;;;;;;8.25;6.10;;;22.90;99.90;;;;;;5042601;28;20232;-69
2023/07/10 07:18:31;;;;;;;9.65;6.25;;;22.90;99.90;;;;;;5039283;28;20195;-69
2023/07/10 07:20:57;;;;;;;8.68;6.20;;;23.00;99.90;;;;;;5043940;28;20603;-70
2023/07/10 07:23:23;;;;;;;10.73;7.47;;;23.00;99.90;;;;;;5040135;28;20199;-71
2023/07/10 07:25:48;;;;;;;6.95;5.90;;;23.00;99.90;;;;;;5030654;28;20705;-67
2023/07/10 07:28:14;;;;;;;8.82;7.05;;;23.00;99.90;;;;;;5046816;28;20200;-69
2023/07/10 07:30:47;;;;;;;7.95;6.40;;;23.00;99.90;;;;;;5041560;28;20211;-70
2023/07/10 07:33:20;;;;;;;12.23;6.75;;;23.10;99.90;;;;;;5039138;28;20194;-68
2023/07/10 07:35:46;;;;;;;8.65;6.50;;;23.10;99.90;;;;;;5034460;28;20210;-68
2023/07/10 07:38:13;;;;;;;7.07;6.13;;;23.20;99.90;;;;;;5038065;28;20199;-68
2023/07/10 07:40:39;;;;;;;8.65;5.85;;;23.10;99.90;;;;;;5036377;28;20199;-68
2023/07/10 07:43:04;;;;;;;7.05;5.80;;;23.20;99.90;;;;;;5043885;28;20213;-68
2023/07/10 07:45:30;;;;;;;8.82;7.00;;;23.30;99.90;;;;;;5050012;28;20289;-70
2023/07/10 07:47:55;;;;;;;8.13;7.32;;;23.40;99.90;;;;;;5039837;28;20221;-73
2023/07/10 07:50:20;;;;;;;8.30;6.82;;;23.50;99.90;;;;;;5043274;28;20223;-73
2023/07/10 07:52:46;;;;;;;9.20;5.45;;;23.60;99.90;;;;;;5040258;28;20234;-71
2023/07/10 07:55:12;;;;;;;8.40;6.18;;;23.60;99.90;;;;;;5038260;28;20553;-73
2023/07/10 07:57:38;;;;;;;8.35;6.45;;;23.80;99.90;;;;;;5041317;28;20195;-76
2023/07/10 08:00:05;;;;;;;6.97;6.03;;;23.90;99.90;;;;;;5044780;28;20207;-72
2023/07/10 08:02:30;;;;;;;8.68;6.80;;;23.90;99.90;;;;;;5039585;28;20219;-71
2023/07/10 08:04:58;;;;;;;8.43;5.95;;;24.00;99.90;;;;;;5041545;28;20734;-69
2023/07/10 08:07:24;;;;;;;6.75;6.05;;;24.20;99.80;;;;;;5016569;28;20220;-68
2023/07/10 08:09:49;;;;;;;6.82;6.15;;;24.40;98.60;;;;;;5032517;28;20735;-69
2023/07/10 08:12:15;;;;;;;6.53;5.80;;;24.40;98.90;;;;;;5023647;28;20200;-69
2023/07/10 08:14:40;;;;;;;6.70;5.97;;;24.50;99.20;;;;;;5031452;28;20556;-69
2023/07/10 08:17:06;;;;;;;6.95;6.35;;;24.50;98.90;;;;;;5035448;28;20188;-72
2023/07/10 08:19:31;;;;;;;8.82;6.82;;;24.70;98.80;;;;;;5033958;28;20191;-71
2023/07/10 08:21:57;;;;;;;15.15;6.70;;;24.60;97.60;;;;;;5034644;28;20199;-78
2023/07/10 08:24:24;;;;;;;9.02;6.88;;;24.70;98.20;;;;;;5031401;28;20196;-74
2023/07/10 08:26:52;;;;;;;7.53;5.60;;;24.50;97.40;;;;;;5035563;28;20228;-73
2023/07/10 08:29:30;;;;;;;7.15;5.78;;;24.50;98.00;;;;;;5037050;28;20568;-73
2023/07/10 08:31:57;;;;;;;10.48;5.88;;;24.60;99.20;;;;;;5038737;28;20188;-76
2023/07/10 08:34:24;;;;;;;9.30;6.90;;;24.80;98.20;;;;;;5025484;28;20284;-71
2023/07/10 08:36:53;;;;;;;7.13;6.18;;;25.00;97.10;;;;;;5026458;28;20261;-74
2023/07/10 08:39:22;;;;;;;7.28;6.57;;;25.00;97.60;;;;;;5037580;28;20198;-70
2023/07/10 08:41:58;;;;;;;6.05;5.63;;;25.10;97.40;;;;;;5031510;28;20637;-70
2023/07/10 08:44:34;;;;;;;6.40;5.90;;;25.00;97.60;;;;;;5037853;28;20679;-71
2023/07/10 08:47:03;;;;;;;7.18;5.65;;;24.90;97.60;;;;;;5028393;28;20327;-71
2023/07/10 08:49:39;;;;;;;6.63;5.85;;;24.80;98.40;;;;;;5037105;28;20688;-73
2023/07/10 08:52:12;;;;;;;6.57;5.90;;;24.90;97.60;;;;;;5035454;28;20598;-73
2023/07/10 08:54:38;;;;;;;10.38;6.88;;;25.10;97.10;;;;;;5030957;28;20740;-74
2023/07/10 08:57:15;;;;;;;7.78;6.30;;;25.10;97.30;;;;;;5035928;28;20284;-73
2023/07/10 08:59:49;;;;;;;5.95;5.43;;;25.30;95.90;;;;;;5034378;28;20364;-72
2023/07/10 09:02:20;;;;;;;7.35;6.65;;;25.40;96.60;;;;;;5036653;28;20202;-73
2023/07/10 09:04:48;;;;;;;7.25;6.55;;;25.60;96.40;;;;;;5028029;28;20208;-74
2023/07/10 09:07:16;;;;;;;6.97;6.28;;;25.80;95.30;;;;;;5037898;28;20237;-72
2023/07/10 09:10:01;;;;;;;6.20;5.57;;;25.90;95.40;;;;;;5037087;28;20198;-71
2023/07/10 09:12:39;;;;;;;7.53;6.53;;;25.80;95.70;;;;;;5039424;28;20201;-70
2023/07/10 09:15:11;;;;;;;6.25;5.63;;;25.80;95.80;;;;;;5042179;28;20205;-70
2023/07/10 09:17:45;;;;;;;6.75;6.15;;;25.80;95.70;;;;;;5038993;28;23487;-74
2023/07/10 09:20:11;;;;;;;7.60;6.70;;;25.80;95.70;;;;;;5037029;28;20207;-73
2023/07/10 09:22:42;;;;;;;6.78;6.15;;;26.00;93.90;;;;;;5029288;28;20564;-71
2023/07/10 09:25:12;;;;;;;6.35;5.82;;;26.20;94.50;;;;;;5035858;28;20730;-73
2023/07/10 09:27:40;;;;;;;7.30;6.60;;;26.00;94.40;;;;;;5041530;28;20672;-72
2023/07/10 09:30:16;;;;;;;8.38;6.60;;;26.00;94.40;;;;;;5040920;28;20229;-74
2023/07/10 09:32:42;;;;;;;6.32;5.70;;;25.90;94.40;;;;;;5038467;28;20690;-73
2023/07/10 09:35:08;;;;;;;8.90;6.07;;;26.00;94.30;;;;;;5034465;28;20206;-72
2023/07/10 09:37:35;;;;;;;7.35;6.47;;;26.00;94.10;;;;;;5015329;28;20199;-74
2023/07/10 09:40:34;;;;;;;16.63;7.65;;;26.10;94.80;;;;;;5036616;28;20238;-80
2023/07/10 09:43:05;;;;;;;10.32;6.32;;;26.60;93.80;;;;;;5032218;28;20202;-69
2023/07/10 09:45:33;;;;;;;7.80;6.32;;;26.70;93.20;;;;;;5041567;28;20200;-69
2023/07/10 09:47:59;;;;;;;14.48;7.65;;;26.70;93.40;;;;;;5042081;28;20206;-81
2023/07/10 09:50:24;;;;;;;7.60;6.72;;;27.00;95.70;;;;;;5035312;28;20711;-68
2023/07/10 09:52:55;;;;;;;8.55;7.57;;;26.50;96.80;;;;;;5040766;28;20190;-68
2023/07/10 09:55:22;;;;;;;7.75;7.03;;;25.50;99.90;;;;;;5042667;28;21047;-68
2023/07/10 09:57:47;;;;;;;8.07;6.80;;;24.50;99.90;;;;;;5028717;28;20705;-64
2023/07/10 10:00:16;;;;;;;8.43;7.72;;;23.90;99.90;;;;;;5025033;28;20206;-68
2023/07/10 10:03:13;;;;;;;7.45;6.75;;;23.50;99.90;;;;;;5026142;28;20211;-68
2023/07/10 10:05:42;;;;;;;8.43;7.63;;;23.40;99.90;;;;;;5039011;28;20223;-67
2023/07/10 10:08:25;;;;;;;7.45;6.82;;;23.40;99.90;;;;;;5039294;28;20216;-66
2023/07/10 10:11:06;;;;;;;7.78;7.07;;;23.10;99.90;;;;;;5034426;28;20709;-65
2023/07/10 10:13:48;;;;;;;8.48;6.93;;;23.20;99.90;;;;;;5033093;28;20214;-76
2023/07/10 10:16:32;;;;;;;6.32;5.68;;;22.90;99.90;;;;;;5027901;28;20228;-67
2023/07/10 10:19:02;;;;;;;7.97;7.18;;;23.30;99.90;;;;;;5029570;28;20280;-68
2023/07/10 10:21:31;;;;;;;6.97;6.30;;;23.30;99.90;;;;;;5032971;28;20686;-70
2023/07/10 10:23:58;;;;;;;7.57;6.75;;;23.30;99.90;;;;;;5036103;28;20214;-68
2023/07/10 10:26:43;;;;;;;7.03;6.43;;;23.10;99.90;;;;;;5034229;28;20321;-69
2023/07/10 10:29:36;;;;;;;6.97;6.18;;;23.10;99.90;;;;;;5038967;28;20201;-69
2023/07/10 10:32:08;;;;;;;6.43;5.85;;;23.30;99.90;;;;;;5036590;28;20218;-71
2023/07/10 10:34:52;;;;;;;6.78;6.18;;;24.00;99.90;;;;;;5040991;28;20221;-71
2023/07/10 10:37:49;;;;;;;7.38;6.68;;;24.10;99.90;;;;;;5018281;28;20197;-73
2023/07/10 10:40:36;;;;;;;7.10;6.40;;;24.00;99.90;;;;;;5039774;28;20283;-72
2023/07/10 10:43:37;;;;;;;6.60;5.93;;;24.20;99.90;;;;;;5040423;28;20198;-71
2023/07/10 10:46:18;;;;;;;5.88;5.38;;;24.20;99.90;;;;;;5045615;28;20213;-71
2023/07/10 10:49:15;;;;;;;8.15;7.20;;;24.60;99.90;;;;;;5040858;28;20198;-73
2023/07/10 10:51:52;;;;;;;7.28;5.97;;;25.30;99.90;;;;;;5041703;28;20761;-73
2023/07/10 10:54:34;;;;;;;6.43;5.93;;;25.00;99.90;;;;;;5045749;28;20836;-73
2023/07/10 10:57:20;;;;;;;7.22;6.00;;;25.50;99.90;;;;;;5037296;28;20209;-73
2023/07/10 10:59:59;;;;;;;6.97;6.28;;;25.70;99.90;;;;;;5034034;28;20563;-69
2023/07/10 11:02:47;;;;;;;6.82;6.25;;;26.10;99.90;;;;;;5038369;28;20244;-70
2023/07/10 11:05:20;;;;;;;8.77;6.40;;;26.20;99.60;;;;;;5043098;28;20201;-73
2023/07/10 11:07:52;;;;;;;6.95;6.28;;;26.40;99.90;;;;;;5041329;28;20680;-73
2023/07/10 11:10:36;;;;;;;7.22;6.63;;;26.70;97.80;;;;;;5042476;28;20218;-73
2023/07/10 11:13:03;;;;;;;6.65;6.07;;;27.00;98.90;;;;;;5045397;28;20687;-73
2023/07/10 11:15:31;;;;;;;9.18;6.78;;;27.40;96.70;;;;;;5041213;28;20272;-70
2023/07/10 11:17:58;;;;;;;10.30;7.18;;;27.80;95.00;;;;;;5031968;28;20252;-70
2023/07/10 11:20:26;;;;;;;7.88;7.20;;;27.80;94.80;;;;;;5042222;28;20202;-69
2023/07/10 11:23:01;;;;;;;9.77;8.95;;;27.80;96.30;;;;;;5039630;28;22824;-77
2023/07/10 11:25:37;;;;;;;9.50;8.60;;;27.60;96.80;;;;;;5023503;28;20293;-73
2023/07/10 11:28:27;;;;;;;9.00;8.13;;;27.50;97.60;;;;;;5037779;28;20293;-74
2023/07/10 11:31:19;;;;;;;8.10;7.32;;;27.40;98.10;;;;;;5018880;28;20222;-74
2023/07/10 11:33:57;;;;;;;9.55;8.75;;;27.70;98.20;;;;;;5043788;28;20195;-74
2023/07/10 11:36:26;;;;;;;9.43;8.40;;;27.90;98.00;;;;;;5039247;28;20775;-74
2023/07/10 11:38:55;;;;;;;10.98;9.93;;;27.90;98.50;;;;;;5039279;28;20252;-72
2023/07/10 11:41:30;;;;;;;11.43;10.30;;;28.00;98.00;;;;;;5036617;28;20230;-73
2023/07/10 11:44:11;;;;;;;10.43;9.30;;;28.00;98.40;;;;;;5044265;28;20190;-70
2023/07/10 11:46:53;;;;;;;9.43;8.48;;;28.10;98.50;;;;;;5032299;28;20213;-68
2023/07/10 11:49:19;;;;;;;12.52;8.05;;;28.10;96.80;;;;;;5045552;28;20356;-69
2023/07/10 11:52:13;;;;;;;9.13;8.32;;;28.40;95.10;;;;;;5042212;28;20855;-69
2023/07/10 11:54:47;;;;;;;11.48;8.98;;;28.60;94.40;;;;;;5035890;28;20265;-70
2023/07/10 11:57:22;;;;;;;9.25;8.32;;;28.40;94.60;;;;;;5040807;28;20230;-71
2023/07/10 11:59:53;;;;;;;8.90;8.00;;;28.70;93.40;;;;;;5035574;28;20276;-75
2023/07/10 12:02:39;;;;;;;9.63;8.25;;;28.60;93.30;;;;;;5020600;28;20715;-72
2023/07/10 12:05:27;;;;;;;20.42;9.65;;;28.60;94.40;;;;;;5033283;28;20233;-75
2023/07/10 12:08:01;;;;;;;8.73;6.97;;;28.70;94.90;;;;;;5037214;28;20211;-74
2023/07/10 12:10:29;;;;;;;8.40;7.50;;;28.60;94.20;;;;;;5036909;28;20222;-67
2023/07/10 12:12:56;;;;;;;8.18;6.32;;;28.60;93.60;;;;;;5039856;28;20214;-71
2023/07/10 12:15:22;;;;;;;6.93;6.25;;;29.00;93.50;;;;;;5034671;28;20193;-72
2023/07/10 12:17:50;;;;;;;8.18;7.47;;;29.60;92.30;;;;;;5034627;28;20195;-69
2023/07/10 12:20:23;;;;;;;7.97;7.25;;;29.40;93.00;;;;;;5031970;28;20665;-75
2023/07/10 12:22:51;;;;;;;8.10;7.03;;;29.10;93.90;;;;;;5034147;28;20699;-74
2023/07/10 12:25:18;;;;;;;7.65;6.95;;;29.20;93.70;;;;;;5037923;28;20212;-74
2023/07/10 12:27:44;;;;;;;7.78;7.07;;;29.40;93.90;;;;;;5041737;28;20194;-71
2023/07/10 12:30:25;;;;;;;8.27;7.28;;;29.70;93.20;;;;;;5037648;28;20213;-75
2023/07/10 12:32:54;;;;;;;12.20;9.02;;;29.60;93.40;;;;;;5043497;28;20208;-74
2023/07/10 12:35:46;;;;;;;8.93;8.13;;;29.10;93.80;;;;;;5039891;28;20245;-72
2023/07/10 12:38:11;;;;;;;8.98;7.95;;;28.50;95.50;;;;;;5032482;28;20793;-71
2023/07/10 12:40:38;;;;;;;7.85;7.15;;;28.90;95.40;;;;;;5039658;28;20711;-70
2023/07/10 12:43:33;;;;;;;9.50;8.02;;;28.50;95.70;;;;;;5042228;28;20210;-71
2023/07/10 12:46:01;;;;;;;8.43;7.57;;;28.10;97.80;;;;;;5012342;28;20218;-70
2023/07/10 12:48:31;;;;;;;7.75;7.03;;;27.90;98.70;;;;;;5035816;28;20207;-71
2023/07/10 12:50:59;;;;;;;7.78;7.07;;;27.40;99.90;;;;;;5037687;28;20220;-72
2023/07/10 12:53:30;;;;;;;7.35;6.70;;;27.30;99.90;;;;;;5037593;28;20222;-73
2023/07/10 12:56:26;;;;;;;10.18;7.93;;;27.50;99.90;;;;;;5043609;28;20198;-73
2023/07/10 12:58:53;;;;;;;7.80;7.10;;;27.50;99.90;;;;;;5040837;28;20204;-74